Time;durP1;ratioP1;P1;durP2;ratioP2;P2;SDS_P1;SDS_P2;PMS_P1;PMS_P2;Temp;Humidity;BMP_temperature;BMP_pressure;BME280_temperature;BME280_humidity;BME280_pressure;Samples;Min_cycle;Max_cycle;Signal;HPM_P1;HPM_P2
2021/12/27 00:02:21;;;;;;;;;;;5.60;95.50;;;;;;5036946;28;19951;-77
2021/12/27 00:04:47;;;;;;;;;;;5.50;95.60;;;;;;5035263;28;20050;-78
2021/12/27 00:07:14;;;;;;;;;;;5.40;95.60;;;;;;5031695;28;20161;-77
2021/12/27 00:09:40;;;;;;;;;;;5.40;95.50;;;;;;5034662;28;19959;-77
2021/12/27 00:12:06;;;;;;;;;;;5.40;95.50;;;;;;5035426;28;19952;-77
2021/12/27 00:14:31;;;;;;;;;;;5.20;95.40;;;;;;5036004;28;20465;-77
2021/12/27 00:16:57;;;;;;;;;;;5.30;95.90;;;;;;5035110;28;19949;-77
2021/12/27 00:19:22;;;;;;;;;;;5.30;96.00;;;;;;5034722;28;20024;-77
2021/12/27 00:21:48;;;;;;;;;;;5.30;96.00;;;;;;5036257;28;19981;-77
2021/12/27 00:24:14;;;;;;;;;;;5.20;96.00;;;;;;5036148;28;19936;-77
2021/12/27 00:26:39;;;;;;;;;;;5.20;96.00;;;;;;5034805;28;19966;-77
2021/12/27 00:29:05;;;;;;;;;;;5.10;96.00;;;;;;5035963;28;19990;-77
2021/12/27 00:31:30;;;;;;;;;;;5.00;95.90;;;;;;5036432;28;20398;-77
2021/12/27 00:33:56;;;;;;;;;;;5.00;96.10;;;;;;5035924;28;20420;-77
2021/12/27 00:36:21;;;;;;;;;;;5.00;96.20;;;;;;5036400;28;20313;-77
2021/12/27 00:38:47;;;;;;;;;;;5.10;96.20;;;;;;5036326;28;20422;-77
2021/12/27 00:41:12;;;;;;;;;;;5.10;96.30;;;;;;5035913;28;19986;-77
2021/12/27 00:43:38;;;;;;;;;;;5.10;96.30;;;;;;5034099;28;19945;-77
2021/12/27 00:46:03;;;;;;;;;;;5.10;96.40;;;;;;5034443;28;19980;-78
2021/12/27 00:48:29;;;;;;;;;;;5.20;96.40;;;;;;5034901;28;19965;-77
2021/12/27 00:50:55;;;;;;;;;;;5.20;96.40;;;;;;5034986;28;19949;-77
2021/12/27 00:53:20;;;;;;;;;;;5.10;96.40;;;;;;5036278;28;19945;-78
2021/12/27 00:55:46;;;;;;;;;;;5.20;96.30;;;;;;5034434;28;20461;-78
2021/12/27 00:58:11;;;;;;;;;;;5.10;96.40;;;;;;5034579;28;19952;-77
2021/12/27 01:00:37;;;;;;;;;;;5.20;96.40;;;;;;5033963;28;19946;-77
2021/12/27 01:03:03;;;;;;;;;;;5.20;96.30;;;;;;5034621;28;19999;-77
2021/12/27 01:05:29;;;;;;;;;;;5.10;96.30;;;;;;5034774;28;19940;-77
2021/12/27 01:07:54;;;;;;;;;;;5.00;96.30;;;;;;5028529;28;19991;-77
2021/12/27 01:10:57;;;;;;;;;;;5.00;96.30;;;;;;5034414;28;19941;-77
2021/12/27 01:18:33;;;;;;;;;;;4.90;96.20;;;;;;5035296;28;19951;-78
2021/12/27 01:20:59;;;;;;;;;;;4.90;96.20;;;;;;5035687;28;19952;-77
2021/12/27 01:23:25;;;;;;;;;;;4.80;96.10;;;;;;5035310;28;20042;-77
2021/12/27 01:25:50;;;;;;;;;;;4.60;96.10;;;;;;5035385;28;20348;-77
2021/12/27 01:28:18;;;;;;;;;;;4.50;96.00;;;;;;5035667;28;19964;-77
2021/12/27 01:30:47;;;;;;;;;;;4.50;96.10;;;;;;5034607;28;19946;-77
2021/12/27 01:33:14;;;;;;;;;;;4.40;96.20;;;;;;5034048;28;19944;-77
2021/12/27 01:35:40;;;;;;;;;;;4.50;96.40;;;;;;5035395;28;19946;-77
2021/12/27 01:38:06;;;;;;;;;;;4.40;96.40;;;;;;5033993;28;19948;-77
2021/12/27 01:40:32;;;;;;;;;;;4.40;96.50;;;;;;5034031;28;20509;-77
2021/12/27 01:43:10;;;;;;;;;;;4.40;96.50;;;;;;5035412;28;19939;-77
2021/12/27 01:45:39;;;;;;;;;;;4.50;96.50;;;;;;5035795;28;20003;-77
2021/12/27 01:48:06;;;;;;;;;;;4.50;96.60;;;;;;5034749;28;19939;-77
2021/12/27 01:50:32;;;;;;;;;;;4.50;96.70;;;;;;5033735;28;19949;-77
2021/12/27 01:52:58;;;;;;;;;;;4.60;96.70;;;;;;5034742;28;19939;-77
2021/12/27 01:55:23;;;;;;;;;;;4.60;96.70;;;;;;5034440;28;19990;-77
2021/12/27 01:57:49;;;;;;;;;;;4.50;96.60;;;;;;5034514;28;19950;-77
2021/12/27 02:00:15;;;;;;;;;;;4.60;96.60;;;;;;5034701;28;20407;-77
2021/12/27 02:02:41;;;;;;;;;;;4.50;96.60;;;;;;5034531;28;19997;-77
2021/12/27 02:05:07;;;;;;;;;;;4.60;96.60;;;;;;5033272;28;20371;-77
2021/12/27 02:07:32;;;;;;;;;;;4.70;96.60;;;;;;5027767;28;19995;-77
2021/12/27 02:10:02;;;;;;;;;;;4.70;96.60;;;;;;5033890;28;19958;-77
2021/12/27 02:12:31;;;;;;;;;;;4.80;96.60;;;;;;5034809;28;19941;-77
2021/12/27 02:14:57;;;;;;;;;;;4.70;96.60;;;;;;5034358;28;19945;-78
2021/12/27 02:17:23;;;;;;;;;;;4.70;96.60;;;;;;5034531;28;19954;-77
2021/12/27 02:19:49;;;;;;;;;;;4.80;96.60;;;;;;5033172;28;19972;-77
2021/12/27 02:22:15;;;;;;;;;;;4.80;96.50;;;;;;5034707;28;20002;-77
2021/12/27 02:24:40;;;;;;;;;;;4.90;96.50;;;;;;5034687;28;19976;-77
2021/12/27 02:27:13;;;;;;;;;;;4.90;96.50;;;;;;5032195;28;19960;-77
2021/12/27 02:29:38;;;;;;;;;;;4.90;96.50;;;;;;5034143;28;19955;-77
2021/12/27 02:32:04;;;;;;;;;;;4.90;96.50;;;;;;5032597;28;20012;-77
2021/12/27 02:34:29;;;;;;;;;;;4.90;96.30;;;;;;5033972;28;20015;-77
2021/12/27 02:36:55;;;;;;;;;;;4.70;96.20;;;;;;5034166;28;19958;-77
2021/12/27 02:39:20;;;;;;;;;;;4.70;96.20;;;;;;5033872;28;19955;-77
2021/12/27 02:41:46;;;;;;;;;;;4.70;96.10;;;;;;5034039;28;20432;-77
2021/12/27 02:44:12;;;;;;;;;;;4.60;96.10;;;;;;5032459;28;20409;-77
2021/12/27 02:46:37;;;;;;;;;;;4.60;96.10;;;;;;5033995;28;20034;-77
2021/12/27 02:49:04;;;;;;;;;;;4.70;96.20;;;;;;5032413;28;19977;-77
2021/12/27 02:51:30;;;;;;;;;;;4.80;96.30;;;;;;5033719;28;19950;-77
2021/12/27 02:53:56;;;;;;;;;;;4.90;96.30;;;;;;5032281;28;19976;-77
2021/12/27 02:56:22;;;;;;;;;;;4.90;96.30;;;;;;5033569;28;19950;-77
2021/12/27 02:58:49;;;;;;;;;;;5.00;96.30;;;;;;5032268;28;19953;-77
2021/12/27 03:01:16;;;;;;;;;;;5.00;96.30;;;;;;5033728;28;19937;-77
2021/12/27 03:03:42;;;;;;;;;;;5.10;96.30;;;;;;5033607;28;19989;-77
2021/12/27 03:06:08;;;;;;;;;;;5.10;96.30;;;;;;5033089;28;19936;-77
2021/12/27 03:08:34;;;;;;;;;;;5.00;96.20;;;;;;5028230;28;19970;-77
2021/12/27 03:11:01;;;;;;;;;;;4.90;96.00;;;;;;5033776;28;19984;-78
2021/12/27 03:13:28;;;;;;;;;;;4.90;95.90;;;;;;5033815;28;19945;-77
2021/12/27 03:15:58;;;;;;;;;;;4.70;95.90;;;;;;5033482;28;19950;-77
2021/12/27 03:18:24;;;;;;;;;;;4.70;95.90;;;;;;5032173;28;19955;-77
2021/12/27 03:20:51;;;;;;;;;;;4.70;95.90;;;;;;5033586;28;19989;-77
2021/12/27 03:23:16;;;;;;;;;;;4.70;96.00;;;;;;5033516;28;19975;-77
2021/12/27 03:25:42;;;;;;;;;;;4.80;96.10;;;;;;5033274;28;20068;-77
2021/12/27 03:28:08;;;;;;;;;;;4.80;96.10;;;;;;5033227;28;19950;-77
2021/12/27 03:30:33;;;;;;;;;;;4.80;96.10;;;;;;5037746;28;20412;-77
2021/12/27 03:32:59;;;;;;;;;;;4.80;96.10;;;;;;5038030;28;19946;-77
2021/12/27 03:35:27;;;;;;;;;;;4.90;96.20;;;;;;5037818;28;19938;-77
2021/12/27 03:37:54;;;;;;;;;;;5.00;96.20;;;;;;5036299;28;19955;-77
2021/12/27 03:40:20;;;;;;;;;;;5.00;96.30;;;;;;5037783;28;19952;-77
2021/12/27 03:42:52;;;;;;;;;;;5.00;96.30;;;;;;5037653;28;20022;-77
2021/12/27 03:45:18;;;;;;;;;;;5.10;96.30;;;;;;5037192;28;20018;-77
2021/12/27 03:47:44;;;;;;;;;;;5.10;96.30;;;;;;5037226;28;19949;-77
2021/12/27 03:50:10;;;;;;;;;;;5.10;96.30;;;;;;5035981;28;19979;-77
2021/12/27 03:52:37;;;;;;;;;;;5.10;96.30;;;;;;5036367;28;20300;-77
2021/12/27 03:55:03;;;;;;;;;;;5.10;96.30;;;;;;5030386;28;19941;-83
2021/12/27 03:57:31;;;;;;;;;;;5.10;96.30;;;;;;5029116;28;20406;-84
2021/12/27 04:00:28;;;;;;;;;;;5.20;96.40;;;;;;5027874;28;19995;-83
2021/12/27 04:02:55;;;;;;;;;;;5.40;96.60;;;;;;5030320;28;19988;-77
2021/12/27 04:05:21;;;;;;;;;;;5.60;96.60;;;;;;5034206;28;19982;-77
2021/12/27 04:07:55;;;;;;;;;;;5.60;96.40;;;;;;5029144;28;19972;-78
2021/12/27 04:10:21;;;;;;;;;;;5.50;96.10;;;;;;5033026;28;19949;-78
2021/12/27 04:12:46;;;;;;;;;;;5.60;96.10;;;;;;5034922;28;19950;-78
2021/12/27 04:15:12;;;;;;;;;;;5.70;96.10;;;;;;5033702;28;19944;-78
2021/12/27 04:17:38;;;;;;;;;;;5.80;96.00;;;;;;5034764;28;19940;-78
2021/12/27 04:20:04;;;;;;;;;;;5.80;95.90;;;;;;5035122;28;20415;-78
2021/12/27 04:22:33;;;;;;;;;;;5.80;95.70;;;;;;5033230;28;19947;-85
2021/12/27 04:25:02;;;;;;;;;;;5.80;95.60;;;;;;5027054;28;19979;-84
2021/12/27 04:27:27;;;;;;;;;;;5.90;95.60;;;;;;5027885;28;19937;-83
2021/12/27 04:29:53;;;;;;;;;;;6.10;95.60;;;;;;5029544;28;20305;-85
2021/12/27 04:32:19;;;;;;;;;;;6.20;95.50;;;;;;5032514;28;20476;-75
2021/12/27 04:34:44;;;;;;;;;;;6.20;94.90;;;;;;5033452;28;20391;-75
2021/12/27 04:37:10;;;;;;;;;;;6.00;94.10;;;;;;5033429;28;19938;-75
2021/12/27 04:39:35;;;;;;;;;;;5.90;93.70;;;;;;5033037;28;20449;-75
2021/12/27 04:42:02;;;;;;;;;;;5.70;93.70;;;;;;5032107;28;19954;-75
2021/12/27 04:44:27;;;;;;;;;;;5.70;93.80;;;;;;5032895;28;20043;-75
2021/12/27 04:46:53;;;;;;;;;;;5.70;93.90;;;;;;5033183;28;19975;-75
2021/12/27 04:49:18;;;;;;;;;;;5.70;94.00;;;;;;5033172;28;19991;-75
2021/12/27 04:51:44;;;;;;;;;;;5.70;93.80;;;;;;5032800;28;19931;-75
2021/12/27 04:54:10;;;;;;;;;;;5.50;93.80;;;;;;5032843;28;20368;-74
2021/12/27 04:56:35;;;;;;;;;;;5.40;93.90;;;;;;5032923;28;19936;-75
2021/12/27 04:59:01;;;;;;;;;;;5.40;94.10;;;;;;5033105;28;20028;-74
2021/12/27 05:01:27;;;;;;;;;;;5.30;94.30;;;;;;5033201;28;20403;-74
2021/12/27 05:03:52;;;;;;;;;;;5.30;94.30;;;;;;5032921;28;19929;-75
2021/12/27 05:06:18;;;;;;;;;;;5.20;94.30;;;;;;5032235;28;20384;-75
2021/12/27 05:08:43;;;;;;;;;;;5.10;94.30;;;;;;5026121;28;19936;-75
2021/12/27 05:11:09;;;;;;;;;;;5.10;94.50;;;;;;5032566;28;19935;-75
2021/12/27 05:13:35;;;;;;;;;;;5.20;94.60;;;;;;5032703;28;19937;-74
2021/12/27 05:16:01;;;;;;;;;;;5.10;94.60;;;;;;5032512;28;19932;-74
2021/12/27 05:18:27;;;;;;;;;;;5.10;94.70;;;;;;5032471;28;19936;-74
2021/12/27 05:20:53;;;;;;;;;;;5.20;94.80;;;;;;5031711;28;20410;-74
2021/12/27 05:23:18;;;;;;;;;;;5.30;94.90;;;;;;5031449;28;19935;-74
2021/12/27 05:25:44;;;;;;;;;;;5.40;94.90;;;;;;5029736;28;19983;-74
2021/12/27 05:28:10;;;;;;;;;;;5.50;94.90;;;;;;5032704;28;19972;-76
2021/12/27 05:30:36;;;;;;;;;;;5.40;94.70;;;;;;5031587;28;20499;-76
2021/12/27 05:33:02;;;;;;;;;;;5.50;94.70;;;;;;5032165;28;19933;-73
2021/12/27 05:35:28;;;;;;;;;;;5.60;94.70;;;;;;5030501;28;20000;-73
2021/12/27 05:37:53;;;;;;;;;;;5.80;94.70;;;;;;5031551;28;20380;-74
2021/12/27 05:40:20;;;;;;;;;;;5.80;94.50;;;;;;5031970;28;20175;-73
2021/12/27 05:42:46;;;;;;;;;;;5.70;94.30;;;;;;5031338;28;19954;-73
2021/12/27 05:45:11;;;;;;;;;;;5.70;94.20;;;;;;5030743;28;20614;-73
2021/12/27 05:47:37;;;;;;;;;;;5.70;94.20;;;;;;5031890;28;19979;-73
2021/12/27 05:50:05;;;;;;;;;;;5.80;94.30;;;;;;5031234;28;20308;-73
2021/12/27 05:52:31;;;;;;;;;;;5.90;94.20;;;;;;5026402;28;19941;-74
2021/12/27 05:54:57;;;;;;;;;;;6.00;94.20;;;;;;5030083;28;19999;-74
2021/12/27 05:57:22;;;;;;;;;;;6.20;94.20;;;;;;5028393;28;19946;-74
2021/12/27 05:59:48;;;;;;;;;;;6.30;93.80;;;;;;5022677;28;19943;-74
2021/12/27 06:02:13;;;;;;;;;;;6.30;93.40;;;;;;5028740;28;19954;-75
2021/12/27 06:04:39;;;;;;;;;;;6.30;93.10;;;;;;5025797;28;19941;-74
2021/12/27 06:07:04;;;;;;;;;;;6.10;92.30;;;;;;5006423;28;19990;-74
2021/12/27 06:09:30;;;;;;;;;;;5.70;91.40;;;;;;5021910;28;19957;-74
2021/12/27 06:11:55;;;;;;;;;;;5.60;91.80;;;;;;5028229;28;19947;-74
2021/12/27 06:14:21;;;;;;;;;;;5.40;92.00;;;;;;5028861;28;19935;-74
2021/12/27 06:16:47;;;;;;;;;;;5.40;92.10;;;;;;5026618;28;20268;-74
2021/12/27 06:19:12;;;;;;;;;;;5.40;92.60;;;;;;5027061;28;19951;-76
2021/12/27 06:21:38;;;;;;;;;;;5.30;93.00;;;;;;5027268;28;19951;-75
2021/12/27 06:24:04;;;;;;;;;;;5.20;93.50;;;;;;5025256;28;19934;-75
2021/12/27 06:26:29;;;;;;;;;;;5.30;93.90;;;;;;5013438;28;21915;-73
2021/12/27 06:28:55;;;;;;;;;;;5.50;94.00;;;;;;5022331;28;20175;-76
2021/12/27 06:31:21;;;;;;;;;;;5.60;94.00;;;;;;5009448;28;20025;-76
2021/12/27 06:33:47;;;;;;;;;;;5.60;93.80;;;;;;5024448;28;19938;-76
2021/12/27 06:36:14;;;;;;;;;;;5.50;93.60;;;;;;5019720;28;20360;-76
2021/12/27 06:38:39;;;;;;;;;;;5.50;93.70;;;;;;5023536;28;19969;-76
2021/12/27 06:41:05;;;;;;;;;;;5.60;93.60;;;;;;5019072;28;19960;-76
2021/12/27 06:43:30;;;;;;;;;;;5.70;93.40;;;;;;5033120;28;19949;-76
2021/12/27 06:45:57;;;;;;;;;;;5.80;93.20;;;;;;5039237;22;19966;-76
2021/12/27 06:48:23;;;;;;;;;;;5.60;92.80;;;;;;5040492;28;19952;-75
2021/12/27 06:50:48;;;;;;;;;;;5.40;92.20;;;;;;5031122;28;20375;-75
2021/12/27 06:53:14;;;;;;;;;;;5.30;92.60;;;;;;5038711;28;19954;-76
2021/12/27 06:55:39;;;;;;;;;;;5.20;93.30;;;;;;5035949;28;20610;-76
2021/12/27 06:58:05;;;;;;;;;;;5.20;93.70;;;;;;5034484;28;19955;-76
2021/12/27 07:00:31;;;;;;;;;;;5.20;93.80;;;;;;5034020;28;19954;-76
2021/12/27 07:02:56;;;;;;;;;;;5.20;94.30;;;;;;5031420;28;19943;-76
2021/12/27 07:05:22;;;;;;;;;;;5.20;94.50;;;;;;5026289;28;20865;-76
2021/12/27 07:07:47;;;;;;;;;;;5.20;94.70;;;;;;5026018;28;19959;-76
2021/12/27 07:10:14;;;;;;;;;;;5.20;94.60;;;;;;5032457;28;20473;-76
2021/12/27 07:12:39;;;;;;;;;;;5.10;94.70;;;;;;5027845;28;20177;-76
2021/12/27 07:15:05;;;;;;;;;;;5.20;94.90;;;;;;5026607;28;20380;-77
2021/12/27 07:17:31;;;;;;;;;;;5.40;95.00;;;;;;5034424;28;19955;-76
2021/12/27 07:19:57;;;;;;;;;;;5.40;95.00;;;;;;5030928;28;19941;-77
2021/12/27 07:22:22;;;;;;;;;;;5.40;95.10;;;;;;5034789;28;19955;-76
2021/12/27 07:24:48;;;;;;;;;;;5.50;95.00;;;;;;5032684;28;20346;-77
2021/12/27 07:27:14;;;;;;;;;;;5.40;94.90;;;;;;5025461;28;20403;-76
2021/12/27 07:30:32;;;;;;;;;;;5.40;95.00;;;;;;5096573;27;19945;-71
2021/12/27 07:32:58;;;;;;;;;;;5.50;95.10;;;;;;5094347;28;19945;-74
2021/12/27 07:35:24;;;;;;;;;;;5.80;95.50;;;;;;5096911;28;20413;-77
2021/12/27 07:37:50;;;;;;;;;;;5.80;95.00;;;;;;5097821;28;19950;-73
2021/12/27 07:40:15;;;;;;;;;;;5.90;94.30;;;;;;5099537;28;20413;-72
2021/12/27 07:42:41;;;;;;;;;;;5.90;94.00;;;;;;5096050;28;19952;-72
2021/12/27 07:45:07;;;;;;;;;;;5.70;94.10;;;;;;5092950;28;19943;-73
2021/12/27 07:47:32;;;;;;;;;;;5.70;94.40;;;;;;5095756;28;20063;-75
2021/12/27 07:49:58;;;;;;;;;;;5.70;94.50;;;;;;5093603;28;20641;-75
2021/12/27 07:52:24;;;;;;;;;;;5.80;94.20;;;;;;5096086;28;19962;-75
2021/12/27 07:54:49;;;;;;;;;;;6.00;94.00;;;;;;5095661;28;19998;-76
2021/12/27 07:57:15;;;;;;;;;;;6.00;94.00;;;;;;5090078;28;19939;-75
2021/12/27 07:59:42;;;;;;;;;;;6.20;94.00;;;;;;5099803;28;19945;-76
2021/12/27 08:02:10;;;;;;;;;;;6.40;93.90;;;;;;5092282;28;19978;-74
2021/12/27 08:04:36;;;;;;;;;;;6.40;93.60;;;;;;5097284;28;20119;-75
2021/12/27 08:07:02;;;;;;;;;;;6.40;93.30;;;;;;5093132;28;19941;-74
2021/12/27 08:09:28;;;;;;;;;;;6.50;93.30;;;;;;5092523;28;20037;-75
2021/12/27 08:11:53;;;;;;;;;;;6.40;92.90;;;;;;5102009;28;20359;-73
2021/12/27 08:14:19;;;;;;;;;;;6.40;92.90;;;;;;5092871;28;20064;-75
2021/12/27 08:16:44;;;;;;;;;;;6.40;93.00;;;;;;5093138;28;19955;-76
2021/12/27 08:19:10;;;;;;;;;;;6.30;93.10;;;;;;5088038;28;19947;-76
2021/12/27 08:21:37;;;;;;;;;;;6.30;93.40;;;;;;5087042;28;19951;-76
2021/12/27 08:24:03;;;;;;;;;;;6.30;93.60;;;;;;5088716;28;19949;-75
2021/12/27 08:26:29;;;;;;;;;;;6.40;93.80;;;;;;5098305;28;19944;-73
2021/12/27 08:28:55;;;;;;;;;;;6.40;94.10;;;;;;5092661;28;20380;-77
2021/12/27 08:31:21;;;;;;;;;;;6.50;94.20;;;;;;5094428;28;20129;-76
2021/12/27 08:33:46;;;;;;;;;;;6.80;94.00;;;;;;5094217;28;19938;-71
2021/12/27 08:36:12;;;;;;;;;;;6.90;93.50;;;;;;5096480;28;20322;-76
2021/12/27 08:38:38;;;;;;;;;;;7.00;93.20;;;;;;5096130;28;20243;-71
2021/12/27 08:41:03;;;;;;;;;;;7.00;92.40;;;;;;5087348;28;20403;-78
2021/12/27 08:43:29;;;;;;;;;;;7.00;91.80;;;;;;5074018;28;20179;-77
2021/12/27 08:45:56;;;;;;;;;;;7.00;91.60;;;;;;5079663;28;19990;-83
2021/12/27 08:48:21;;;;;;;;;;;7.00;91.40;;;;;;5079831;28;19983;-71
2021/12/27 08:50:47;;;;;;;;;;;7.00;91.40;;;;;;5080292;28;19991;-78
2021/12/27 08:53:12;;;;;;;;;;;7.00;91.70;;;;;;5081583;28;20023;-71
2021/12/27 08:55:39;;;;;;;;;;;7.20;91.90;;;;;;5076816;28;19984;-70
2021/12/27 08:58:05;;;;;;;;;;;7.20;91.50;;;;;;5082178;28;19939;-71
2021/12/27 09:00:31;;;;;;;;;;;7.00;91.50;;;;;;5080606;28;19984;-70
2021/12/27 09:02:57;;;;;;;;;;;6.90;91.50;;;;;;5083986;28;20055;-71
2021/12/27 09:05:23;;;;;;;;;;;6.80;92.10;;;;;;5078526;28;19953;-77
2021/12/27 09:07:48;;;;;;;;;;;6.90;92.30;;;;;;5074045;28;20387;-71
2021/12/27 09:10:14;;;;;;;;;;;6.80;92.30;;;;;;5070089;28;19943;-83
2021/12/27 09:12:40;;;;;;;;;;;6.80;92.00;;;;;;5080658;28;20352;-80
2021/12/27 09:15:06;;;;;;;;;;;6.90;92.10;;;;;;5075521;28;20474;-77
2021/12/27 09:17:32;;;;;;;;;;;7.00;91.80;;;;;;5068100;28;20649;-71
2021/12/27 09:19:58;;;;;;;;;;;7.10;91.70;;;;;;5069983;28;19959;-71
2021/12/27 09:22:23;;;;;;;;;;;7.30;91.40;;;;;;5073169;28;19944;-71
2021/12/27 09:24:50;;;;;;;;;;;7.30;91.10;;;;;;5071824;28;19946;-71
2021/12/27 09:27:16;;;;;;;;;;;7.50;91.10;;;;;;5077256;28;19949;-71
2021/12/27 09:29:43;;;;;;;;;;;7.70;91.00;;;;;;5073443;28;20036;-71
2021/12/27 09:32:09;;;;;;;;;;;7.80;90.50;;;;;;5075863;28;19972;-72
2021/12/27 09:34:35;;;;;;;;;;;7.90;89.50;;;;;;5075980;28;19959;-71
2021/12/27 09:37:01;;;;;;;;;;;7.90;88.90;;;;;;5073018;28;20429;-71
2021/12/27 09:39:26;;;;;;;;;;;8.00;88.60;;;;;;5078322;28;19944;-71
2021/12/27 09:41:52;;;;;;;;;;;8.00;88.80;;;;;;5068778;28;20048;-71
2021/12/27 09:44:17;;;;;;;;;;;8.10;88.90;;;;;;5073819;28;19966;-72
2021/12/27 09:46:43;;;;;;;;;;;8.20;89.20;;;;;;5067456;28;19948;-71
2021/12/27 09:49:10;;;;;;;;;;;8.30;89.20;;;;;;5072691;28;20512;-71
2021/12/27 09:51:37;;;;;;;;;;;8.10;89.00;;;;;;5075999;28;20026;-72
2021/12/27 09:54:03;;;;;;;;;;;8.10;88.70;;;;;;5071785;28;19959;-72
2021/12/27 09:56:29;;;;;;;;;;;8.10;88.60;;;;;;5065362;28;20412;-71
2021/12/27 09:58:54;;;;;;;;;;;7.90;88.60;;;;;;5076420;28;19961;-71
2021/12/27 10:01:20;;;;;;;;;;;8.10;89.00;;;;;;5073766;28;19942;-71
2021/12/27 10:03:47;;;;;;;;;;;8.30;88.90;;;;;;5071492;28;19949;-71
2021/12/27 10:06:13;;;;;;;;;;;8.30;88.20;;;;;;5068208;28;19949;-72
2021/12/27 10:08:42;;;;;;;;;;;8.40;88.30;;;;;;5069881;28;19979;-71
2021/12/27 10:11:14;;;;;;;;;;;8.40;87.10;;;;;;5069416;28;19948;-71
2021/12/27 10:13:40;;;;;;;;;;;8.40;87.20;;;;;;5070781;28;20396;-71
2021/12/27 10:16:13;;;;;;;;;;;8.60;86.70;;;;;;5068181;28;19955;-71
2021/12/27 10:18:38;;;;;;;;;;;8.60;86.10;;;;;;5075468;28;19934;-71
2021/12/27 10:21:04;;;;;;;;;;;8.70;85.60;;;;;;5069605;28;19956;-71
2021/12/27 10:23:33;;;;;;;;;;;8.70;85.50;;;;;;5073675;28;19946;-71
2021/12/27 10:25:59;;;;;;;;;;;8.70;85.70;;;;;;5070715;28;20702;-72
2021/12/27 10:28:26;;;;;;;;;;;8.80;85.60;;;;;;5077850;28;20031;-71
2021/12/27 10:30:59;;;;;;;;;;;8.90;85.00;;;;;;5068285;28;19988;-71
2021/12/27 10:33:26;;;;;;;;;;;8.90;84.20;;;;;;5082622;28;19948;-71
2021/12/27 10:35:56;;;;;;;;;;;9.00;83.30;;;;;;5068496;28;19946;-72
2021/12/27 10:38:32;;;;;;;;;;;8.90;83.30;;;;;;5072729;28;20400;-72
2021/12/27 10:40:59;;;;;;;;;;;8.90;83.60;;;;;;5072605;28;20043;-72
2021/12/27 10:43:38;;;;;;;;;;;8.80;84.10;;;;;;5072963;28;20307;-72
2021/12/27 10:46:06;;;;;;;;;;;8.80;84.50;;;;;;5073438;28;19945;-72
2021/12/27 10:48:35;;;;;;;;;;;9.00;84.30;;;;;;5077831;28;19946;-71
2021/12/27 10:51:01;;;;;;;;;;;9.10;83.50;;;;;;5075560;28;19968;-72
2021/12/27 10:53:27;;;;;;;;;;;9.20;83.00;;;;;;5075538;28;20037;-72
2021/12/27 10:55:53;;;;;;;;;;;9.20;82.30;;;;;;5066923;28;20068;-72
2021/12/27 10:58:23;;;;;;;;;;;9.20;80.80;;;;;;5077866;28;19943;-72
2021/12/27 11:00:52;;;;;;;;;;;9.10;80.10;;;;;;5071376;28;20122;-72
2021/12/27 11:03:31;;;;;;;;;;;9.10;79.50;;;;;;5068372;28;20030;-72
2021/12/27 11:05:57;;;;;;;;;;;8.90;79.50;;;;;;5069962;28;20395;-72
2021/12/27 11:08:23;;;;;;;;;;;9.00;79.60;;;;;;5067792;28;19940;-72
2021/12/27 11:10:48;;;;;;;;;;;8.90;80.40;;;;;;5081375;28;19995;-72
2021/12/27 11:13:14;;;;;;;;;;;8.80;81.10;;;;;;5078622;28;19942;-72
2021/12/27 11:15:42;;;;;;;;;;;8.70;81.10;;;;;;5076229;28;20054;-72
2021/12/27 11:18:08;;;;;;;;;;;8.70;81.10;;;;;;5071753;28;19980;-72
2021/12/27 11:20:35;;;;;;;;;;;8.80;81.80;;;;;;5068498;28;20535;-72
2021/12/27 11:23:01;;;;;;;;;;;9.00;81.70;;;;;;5080343;28;19951;-72
2021/12/27 11:25:37;;;;;;;;;;;9.20;81.10;;;;;;5078209;28;19948;-72
2021/12/27 11:28:24;;;;;;;;;;;9.20;81.30;;;;;;5072437;28;19999;-72
2021/12/27 11:30:50;;;;;;;;;;;9.30;81.50;;;;;;5081628;28;19994;-73
2021/12/27 11:33:19;;;;;;;;;;;9.50;81.40;;;;;;5074919;28;20220;-72
2021/12/27 11:35:51;;;;;;;;;;;9.90;79.90;;;;;;5076056;28;19983;-72
2021/12/27 11:38:36;;;;;;;;;;;10.20;78.40;;;;;;5080194;28;19988;-73
2021/12/27 11:41:03;;;;;;;;;;;10.40;77.20;;;;;;5079902;28;19940;-72
2021/12/27 11:43:47;;;;;;;;;;;10.50;76.40;;;;;;5081980;28;19952;-73
2021/12/27 11:46:13;;;;;;;;;;;10.60;75.20;;;;;;5063953;28;20422;-72
2021/12/27 11:49:04;;;;;;;;;;;10.70;74.60;;;;;;5061507;28;19943;-73
2021/12/27 11:51:34;;;;;;;;;;;10.60;73.80;;;;;;5072334;28;19944;-73
2021/12/27 11:54:04;;;;;;;;;;;10.40;74.40;;;;;;5066588;28;19945;-73
2021/12/27 11:56:39;;;;;;;;;;;10.40;74.60;;;;;;5081836;28;19998;-73
2021/12/27 11:59:27;;;;;;;;;;;10.40;74.60;;;;;;5079587;28;19943;-73
2021/12/27 12:01:54;;;;;;;;;;;10.40;73.90;;;;;;5061560;28;20495;-73
2021/12/27 12:04:38;;;;;;;;;;;10.50;75.00;;;;;;5072779;28;19947;-73
2021/12/27 12:07:05;;;;;;;;;;;11.00;74.50;;;;;;5077253;28;20305;-73
2021/12/27 12:09:31;;;;;;;;;;;11.90;71.80;;;;;;5074165;28;20425;-72
2021/12/27 12:12:03;;;;;;;;;;;12.30;69.20;;;;;;5061788;28;19937;-72
2021/12/27 12:14:31;;;;;;;;;;;12.30;67.90;;;;;;5071839;28;19981;-73
2021/12/27 12:16:58;;;;;;;;;;;12.40;67.70;;;;;;5069874;28;19933;-73
2021/12/27 12:19:56;;;;;;;;;;;12.60;67.70;;;;;;5079358;28;19953;-73
2021/12/27 12:22:34;;;;;;;;;;;12.50;65.20;;;;;;5065262;28;19936;-72
2021/12/27 12:25:09;;;;;;;;;;;12.10;66.50;;;;;;5085235;28;19976;-72
2021/12/27 12:27:35;;;;;;;;;;;11.80;67.80;;;;;;5072816;28;19940;-72
2021/12/27 12:30:00;;;;;;;;;;;11.60;67.50;;;;;;5072076;28;19948;-73
2021/12/27 12:32:26;;;;;;;;;;;12.00;68.20;;;;;;5072569;28;19954;-72
2021/12/27 12:34:51;;;;;;;;;;;12.60;67.70;;;;;;5073854;28;20010;-72
2021/12/27 12:37:18;;;;;;;;;;;13.10;65.80;;;;;;5074183;28;19947;-73
2021/12/27 12:39:46;;;;;;;;;;;13.10;63.20;;;;;;5074606;28;20067;-72
2021/12/27 12:42:17;;;;;;;;;;;13.10;63.10;;;;;;5079638;28;19958;-72
2021/12/27 12:44:50;;;;;;;;;;;13.20;63.00;;;;;;5077936;28;20476;-72
2021/12/27 12:47:16;;;;;;;;;;;12.90;63.80;;;;;;5068188;28;19953;-73
2021/12/27 12:49:41;;;;;;;;;;;12.90;63.30;;;;;;5076898;28;19965;-72
2021/12/27 12:52:07;;;;;;;;;;;12.70;63.40;;;;;;5080700;28;19942;-73
2021/12/27 12:54:38;;;;;;;;;;;12.60;64.90;;;;;;5075926;28;19988;-72
2021/12/27 12:57:07;;;;;;;;;;;12.50;65.60;;;;;;5079322;28;19950;-73
2021/12/27 12:59:34;;;;;;;;;;;12.40;66.20;;;;;;5079439;28;20041;-72
2021/12/27 13:02:19;;;;;;;;;;;12.40;66.70;;;;;;5073827;28;19956;-72
2021/12/27 13:04:52;;;;;;;;;;;12.50;66.80;;;;;;5073875;28;19991;-72
2021/12/27 13:07:44;;;;;;;;;;;12.20;67.40;;;;;;5067260;28;20697;-73
2021/12/27 13:10:16;;;;;;;;;;;11.90;67.80;;;;;;5077597;28;20357;-72
2021/12/27 13:12:41;;;;;;;;;;;12.00;68.50;;;;;;5073316;28;19951;-72
2021/12/27 13:15:10;;;;;;;;;;;12.00;68.10;;;;;;5077368;28;19942;-73
2021/12/27 13:17:37;;;;;;;;;;;12.10;67.80;;;;;;5072903;28;19954;-72
2021/12/27 13:20:03;;;;;;;;;;;12.20;67.50;;;;;;5071503;28;19945;-72
2021/12/27 13:22:38;;;;;;;;;;;12.20;67.60;;;;;;5066653;28;20637;-72
2021/12/27 13:25:04;;;;;;;;;;;12.20;67.10;;;;;;5073675;28;20454;-72
2021/12/27 13:27:30;;;;;;;;;;;12.30;66.80;;;;;;5076443;28;20486;-73
2021/12/27 13:30:22;;;;;;;;;;;12.10;67.20;;;;;;5085509;28;20125;-72
2021/12/27 13:32:47;;;;;;;;;;;12.10;67.00;;;;;;5073569;28;20107;-72
2021/12/27 13:35:17;;;;;;;;;;;12.00;66.70;;;;;;5076075;28;20053;-73
2021/12/27 13:37:45;;;;;;;;;;;12.00;66.80;;;;;;5074032;28;20032;-72
2021/12/27 13:40:14;;;;;;;;;;;11.90;67.00;;;;;;5073140;28;19953;-72
2021/12/27 13:42:39;;;;;;;;;;;11.80;67.30;;;;;;5074314;28;19948;-72
2021/12/27 13:45:08;;;;;;;;;;;11.60;67.80;;;;;;5081257;28;19948;-73
2021/12/27 13:47:33;;;;;;;;;;;11.60;68.30;;;;;;5079317;28;19962;-72
2021/12/27 13:50:00;;;;;;;;;;;11.50;68.50;;;;;;5076638;28;20468;-72
2021/12/27 13:52:25;;;;;;;;;;;11.40;69.30;;;;;;5083952;28;20522;-72
2021/12/27 13:54:53;;;;;;;;;;;11.30;70.10;;;;;;5074189;28;20119;-68
2021/12/27 13:57:19;;;;;;;;;;;11.30;70.30;;;;;;5080015;28;20578;-68
2021/12/27 13:59:48;;;;;;;;;;;11.40;69.80;;;;;;5076987;28;20035;-68
2021/12/27 14:02:14;;;;;;;;;;;11.50;69.40;;;;;;5074943;28;19973;-68
2021/12/27 14:04:39;;;;;;;;;;;11.60;68.70;;;;;;5079149;28;19993;-68
2021/12/27 14:07:06;;;;;;;;;;;11.60;68.80;;;;;;5073667;28;19943;-70
2021/12/27 14:09:33;;;;;;;;;;;11.60;69.10;;;;;;5071769;28;19951;-69
2021/12/27 14:12:03;;;;;;;;;;;11.60;68.70;;;;;;5074747;28;19952;-71
2021/12/27 14:14:44;;;;;;;;;;;11.60;68.70;;;;;;5073707;28;20322;-70
2021/12/27 14:17:10;;;;;;;;;;;11.80;68.30;;;;;;5080859;28;20167;-70
2021/12/27 14:19:37;;;;;;;;;;;11.80;67.80;;;;;;5078011;28;19999;-71
2021/12/27 14:22:04;;;;;;;;;;;11.70;68.00;;;;;;5071078;28;19949;-70
2021/12/27 14:24:47;;;;;;;;;;;11.40;69.10;;;;;;5084205;28;19934;-70
2021/12/27 14:27:33;;;;;;;;;;;11.10;70.40;;;;;;5078221;28;20782;-68
2021/12/27 14:30:05;;;;;;;;;;;11.00;71.60;;;;;;5079906;28;19980;-70
2021/12/27 14:32:33;;;;;;;;;;;11.10;72.00;;;;;;5076446;28;20400;-69
2021/12/27 14:34:58;;;;;;;;;;;10.70;72.90;;;;;;5068621;28;20202;-69
2021/12/27 14:37:24;;;;;;;;;;;10.50;73.70;;;;;;5093465;28;19954;-69